sensor_id;sensor_type;location;lat;lon;timestamp;temperature;humidity
14749;DHT22;7466;53.574;9.976;2023-01-30T00:01:16;3.60;99.90
14749;DHT22;7466;53.574;9.976;2023-01-30T00:03:45;3.70;99.90
14749;DHT22;7466;53.574;9.976;2023-01-30T00:06:12;3.70;99.90
14749;DHT22;7466;53.574;9.976;2023-01-30T00:08:39;3.70;99.90
14749;DHT22;7466;53.574;9.976;2023-01-30T00:11:08;3.80;99.90
14749;DHT22;7466;53.574;9.976;2023-01-30T00:13:36;3.80;99.90
14749;DHT22;7466;53.574;9.976;2023-01-30T00:16:03;3.80;99.90
14749;DHT22;7466;53.574;9.976;2023-01-30T00:18:30;3.90;99.90
14749;DHT22;7466;53.574;9.976;2023-01-30T00:20:59;3.90;99.90
14749;DHT22;7466;53.574;9.976;2023-01-30T00:23:27;3.90;99.90
14749;DHT22;7466;53.574;9.976;2023-01-30T00:25:54;3.90;99.90
14749;DHT22;7466;53.574;9.976;2023-01-30T00:28:24;3.90;99.90
14749;DHT22;7466;53.574;9.976;2023-01-30T00:30:52;3.90;99.90
14749;DHT22;7466;53.574;9.976;2023-01-30T00:33:20;4.00;99.90
14749;DHT22;7466;53.574;9.976;2023-01-30T00:35:49;4.00;99.90
14749;DHT22;7466;53.574;9.976;2023-01-30T00:38:18;4.00;99.90
14749;DHT22;7466;53.574;9.976;2023-01-30T00:40:45;4.00;99.90
14749;DHT22;7466;53.574;9.976;2023-01-30T00:43:14;4.10;99.90
14749;DHT22;7466;53.574;9.976;2023-01-30T00:46:15;4.10;99.90
14749;DHT22;7466;53.574;9.976;2023-01-30T00:49:10;4.10;99.90
14749;DHT22;7466;53.574;9.976;2023-01-30T00:51:37;4.20;99.90
14749;DHT22;7466;53.574;9.976;2023-01-30T00:54:05;4.20;99.90
14749;DHT22;7466;53.574;9.976;2023-01-30T00:56:32;4.30;99.90
14749;DHT22;7466;53.574;9.976;2023-01-30T00:59:07;4.30;99.90
14749;DHT22;7466;53.574;9.976;2023-01-30T01:01:35;4.30;99.90
14749;DHT22;7466;53.574;9.976;2023-01-30T01:04:06;4.30;99.90
14749;DHT22;7466;53.574;9.976;2023-01-30T01:06:35;4.30;99.90
14749;DHT22;7466;53.574;9.976;2023-01-30T01:09:02;4.40;99.90
14749;DHT22;7466;53.574;9.976;2023-01-30T01:11:32;4.40;99.90
14749;DHT22;7466;53.574;9.976;2023-01-30T01:14:00;4.40;99.90
14749;DHT22;7466;53.574;9.976;2023-01-30T01:16:28;4.40;99.90
14749;DHT22;7466;53.574;9.976;2023-01-30T01:19:13;4.40;99.90
14749;DHT22;7466;53.574;9.976;2023-01-30T01:21:39;4.50;99.90
14749;DHT22;7466;53.574;9.976;2023-01-30T01:24:11;4.40;99.90
14749;DHT22;7466;53.574;9.976;2023-01-30T01:26:40;4.50;99.90
14749;DHT22;7466;53.574;9.976;2023-01-30T01:29:10;4.50;99.90
14749;DHT22;7466;53.574;9.976;2023-01-30T01:31:37;4.50;99.90
14749;DHT22;7466;53.574;9.976;2023-01-30T01:34:07;4.60;99.90
14749;DHT22;7466;53.574;9.976;2023-01-30T01:36:34;4.60;99.90
14749;DHT22;7466;53.574;9.976;2023-01-30T01:39:01;4.60;99.90
14749;DHT22;7466;53.574;9.976;2023-01-30T01:41:27;4.60;99.90
14749;DHT22;7466;53.574;9.976;2023-01-30T01:44:02;4.60;99.90
14749;DHT22;7466;53.574;9.976;2023-01-30T01:46:33;4.60;99.90
14749;DHT22;7466;53.574;9.976;2023-01-30T01:49:03;4.70;99.90
14749;DHT22;7466;53.574;9.976;2023-01-30T01:51:34;4.70;99.90
14749;DHT22;7466;53.574;9.976;2023-01-30T01:54:05;4.70;99.90
14749;DHT22;7466;53.574;9.976;2023-01-30T01:56:35;4.70;99.90
14749;DHT22;7466;53.574;9.976;2023-01-30T01:59:08;4.70;99.90
14749;DHT22;7466;53.574;9.976;2023-01-30T02:01:36;4.70;99.90
14749;DHT22;7466;53.574;9.976;2023-01-30T02:04:10;4.70;99.90
14749;DHT22;7466;53.574;9.976;2023-01-30T02:06:38;4.70;99.90
14749;DHT22;7466;53.574;9.976;2023-01-30T02:09:12;4.70;99.90
14749;DHT22;7466;53.574;9.976;2023-01-30T02:11:43;4.70;99.90
14749;DHT22;7466;53.574;9.976;2023-01-30T02:14:17;4.70;99.90
14749;DHT22;7466;53.574;9.976;2023-01-30T02:16:45;4.80;99.90
14749;DHT22;7466;53.574;9.976;2023-01-30T02:19:23;4.80;99.90
14749;DHT22;7466;53.574;9.976;2023-01-30T02:22:21;4.70;99.90
14749;DHT22;7466;53.574;9.976;2023-01-30T02:25:25;4.70;99.90
14749;DHT22;7466;53.574;9.976;2023-01-30T02:28:11;4.80;99.90
14749;DHT22;7466;53.574;9.976;2023-01-30T02:31:08;4.80;99.90
14749;DHT22;7466;53.574;9.976;2023-01-30T02:33:44;4.80;99.90
14749;DHT22;7466;53.574;9.976;2023-01-30T02:36:20;4.80;99.90
14749;DHT22;7466;53.574;9.976;2023-01-30T02:38:56;4.80;99.90
14749;DHT22;7466;53.574;9.976;2023-01-30T02:41:35;4.90;99.90
14749;DHT22;7466;53.574;9.976;2023-01-30T02:44:04;4.80;99.90
14749;DHT22;7466;53.574;9.976;2023-01-30T02:46:39;4.90;99.90
14749;DHT22;7466;53.574;9.976;2023-01-30T02:49:13;4.90;99.90
14749;DHT22;7466;53.574;9.976;2023-01-30T02:51:46;5.00;99.90
14749;DHT22;7466;53.574;9.976;2023-01-30T02:54:15;5.00;99.90
14749;DHT22;7466;53.574;9.976;2023-01-30T02:56:44;5.00;99.90
14749;DHT22;7466;53.574;9.976;2023-01-30T02:59:17;5.00;99.90
14749;DHT22;7466;53.574;9.976;2023-01-30T03:02:01;5.10;99.90
14749;DHT22;7466;53.574;9.976;2023-01-30T03:05:00;5.10;99.90
14749;DHT22;7466;53.574;9.976;2023-01-30T03:07:37;5.10;99.90
14749;DHT22;7466;53.574;9.976;2023-01-30T03:10:08;5.20;99.90
14749;DHT22;7466;53.574;9.976;2023-01-30T03:12:48;5.20;99.90
14749;DHT22;7466;53.574;9.976;2023-01-30T03:15:27;5.20;99.90
14749;DHT22;7466;53.574;9.976;2023-01-30T03:17:58;5.30;99.90
14749;DHT22;7466;53.574;9.976;2023-01-30T03:20:26;5.30;99.90
14749;DHT22;7466;53.574;9.976;2023-01-30T03:22:53;5.30;99.90
14749;DHT22;7466;53.574;9.976;2023-01-30T03:25:22;5.30;99.90
14749;DHT22;7466;53.574;9.976;2023-01-30T03:27:52;5.30;99.90
14749;DHT22;7466;53.574;9.976;2023-01-30T03:30:20;5.40;99.90
14749;DHT22;7466;53.574;9.976;2023-01-30T03:32:48;5.40;99.90
14749;DHT22;7466;53.574;9.976;2023-01-30T03:35:16;5.40;99.90
14749;DHT22;7466;53.574;9.976;2023-01-30T03:37:43;5.40;99.90
14749;DHT22;7466;53.574;9.976;2023-01-30T03:40:11;5.40;99.90
14749;DHT22;7466;53.574;9.976;2023-01-30T03:42:38;5.40;99.90
14749;DHT22;7466;53.574;9.976;2023-01-30T03:45:07;5.40;99.90
14749;DHT22;7466;53.574;9.976;2023-01-30T03:47:34;5.40;99.90
14749;DHT22;7466;53.574;9.976;2023-01-30T03:50:01;5.50;99.90
14749;DHT22;7466;53.574;9.976;2023-01-30T03:52:29;5.50;99.90
14749;DHT22;7466;53.574;9.976;2023-01-30T03:54:56;5.50;99.90
14749;DHT22;7466;53.574;9.976;2023-01-30T03:57:23;5.50;99.90
14749;DHT22;7466;53.574;9.976;2023-01-30T03:59:50;5.60;99.90
14749;DHT22;7466;53.574;9.976;2023-01-30T04:02:16;5.60;99.90
14749;DHT22;7466;53.574;9.976;2023-01-30T04:04:46;5.60;99.90
14749;DHT22;7466;53.574;9.976;2023-01-30T04:07:13;5.60;99.90
14749;DHT22;7466;53.574;9.976;2023-01-30T04:09:42;5.60;99.90
14749;DHT22;7466;53.574;9.976;2023-01-30T04:12:09;5.60;99.90
14749;DHT22;7466;53.574;9.976;2023-01-30T04:14:38;5.60;99.90
14749;DHT22;7466;53.574;9.976;2023-01-30T04:17:07;5.60;99.90
14749;DHT22;7466;53.574;9.976;2023-01-30T04:19:34;5.70;99.90
14749;DHT22;7466;53.574;9.976;2023-01-30T04:22:01;5.70;99.90
14749;DHT22;7466;53.574;9.976;2023-01-30T04:24:35;5.80;99.90
14749;DHT22;7466;53.574;9.976;2023-01-30T04:27:12;5.80;99.90
14749;DHT22;7466;53.574;9.976;2023-01-30T04:29:39;5.80;99.90
14749;DHT22;7466;53.574;9.976;2023-01-30T04:32:06;5.90;99.90
14749;DHT22;7466;53.574;9.976;2023-01-30T04:34:36;5.90;99.90
14749;DHT22;7466;53.574;9.976;2023-01-30T04:37:03;5.80;99.90
14749;DHT22;7466;53.574;9.976;2023-01-30T04:39:30;5.80;99.90
14749;DHT22;7466;53.574;9.976;2023-01-30T04:41:57;5.80;99.90
14749;DHT22;7466;53.574;9.976;2023-01-30T04:44:25;5.90;99.90
14749;DHT22;7466;53.574;9.976;2023-01-30T04:46:52;5.80;99.90
14749;DHT22;7466;53.574;9.976;2023-01-30T04:49:19;5.90;99.90
14749;DHT22;7466;53.574;9.976;2023-01-30T04:51:46;5.90;99.90
14749;DHT22;7466;53.574;9.976;2023-01-30T04:54:13;5.80;99.90
14749;DHT22;7466;53.574;9.976;2023-01-30T04:56:40;5.80;99.90
14749;DHT22;7466;53.574;9.976;2023-01-30T04:59:07;5.80;99.90
14749;DHT22;7466;53.574;9.976;2023-01-30T05:01:37;5.80;99.90
14749;DHT22;7466;53.574;9.976;2023-01-30T05:04:05;5.80;99.90
14749;DHT22;7466;53.574;9.976;2023-01-30T05:06:33;5.70;99.90
14749;DHT22;7466;53.574;9.976;2023-01-30T05:09:01;5.70;99.90
14749;DHT22;7466;53.574;9.976;2023-01-30T05:11:29;5.70;99.90
14749;DHT22;7466;53.574;9.976;2023-01-30T05:13:56;5.70;99.90
14749;DHT22;7466;53.574;9.976;2023-01-30T05:16:24;5.70;99.90
14749;DHT22;7466;53.574;9.976;2023-01-30T05:18:53;5.70;99.90
14749;DHT22;7466;53.574;9.976;2023-01-30T05:21:21;5.60;99.90
14749;DHT22;7466;53.574;9.976;2023-01-30T05:23:48;5.60;99.90
14749;DHT22;7466;53.574;9.976;2023-01-30T05:26:15;5.60;99.90
14749;DHT22;7466;53.574;9.976;2023-01-30T05:28:42;5.60;99.90
14749;DHT22;7466;53.574;9.976;2023-01-30T05:31:10;5.60;99.90
14749;DHT22;7466;53.574;9.976;2023-01-30T05:33:37;5.60;99.90
14749;DHT22;7466;53.574;9.976;2023-01-30T05:36:06;5.60;99.90
14749;DHT22;7466;53.574;9.976;2023-01-30T05:38:33;5.60;99.90
14749;DHT22;7466;53.574;9.976;2023-01-30T05:41:01;5.50;99.90
14749;DHT22;7466;53.574;9.976;2023-01-30T05:43:29;5.60;99.90
14749;DHT22;7466;53.574;9.976;2023-01-30T05:45:58;5.50;99.90
14749;DHT22;7466;53.574;9.976;2023-01-30T05:48:25;5.50;99.90
14749;DHT22;7466;53.574;9.976;2023-01-30T05:50:56;5.50;99.90
14749;DHT22;7466;53.574;9.976;2023-01-30T05:53:27;5.40;99.90
14749;DHT22;7466;53.574;9.976;2023-01-30T05:55:54;5.50;99.90
14749;DHT22;7466;53.574;9.976;2023-01-30T05:58:22;5.50;99.90
14749;DHT22;7466;53.574;9.976;2023-01-30T06:00:49;5.40;99.90
14749;DHT22;7466;53.574;9.976;2023-01-30T06:03:16;5.40;99.90
14749;DHT22;7466;53.574;9.976;2023-01-30T06:05:43;5.30;99.90
14749;DHT22;7466;53.574;9.976;2023-01-30T06:08:10;5.20;99.90
14749;DHT22;7466;53.574;9.976;2023-01-30T06:10:40;5.20;99.90
14749;DHT22;7466;53.574;9.976;2023-01-30T06:13:06;5.20;99.90
14749;DHT22;7466;53.574;9.976;2023-01-30T06:15:41;5.10;99.90
14749;DHT22;7466;53.574;9.976;2023-01-30T06:18:08;5.10;99.90
14749;DHT22;7466;53.574;9.976;2023-01-30T06:20:35;5.10;99.90
14749;DHT22;7466;53.574;9.976;2023-01-30T06:23:03;5.00;99.90
14749;DHT22;7466;53.574;9.976;2023-01-30T06:25:30;5.00;99.90
14749;DHT22;7466;53.574;9.976;2023-01-30T06:28:04;5.00;99.90
14749;DHT22;7466;53.574;9.976;2023-01-30T06:30:31;5.00;99.90
14749;DHT22;7466;53.574;9.976;2023-01-30T06:32:58;5.00;99.90
14749;DHT22;7466;53.574;9.976;2023-01-30T06:35:25;5.00;99.90
14749;DHT22;7466;53.574;9.976;2023-01-30T06:37:52;4.90;99.90
14749;DHT22;7466;53.574;9.976;2023-01-30T06:40:21;4.90;99.90
14749;DHT22;7466;53.574;9.976;2023-01-30T06:42:48;4.80;99.90
14749;DHT22;7466;53.574;9.976;2023-01-30T06:45:18;4.80;99.90
14749;DHT22;7466;53.574;9.976;2023-01-30T06:47:45;4.80;99.90
14749;DHT22;7466;53.574;9.976;2023-01-30T06:50:12;4.80;99.90
14749;DHT22;7466;53.574;9.976;2023-01-30T06:52:40;4.80;99.90
14749;DHT22;7466;53.574;9.976;2023-01-30T06:55:10;4.80;99.90
14749;DHT22;7466;53.574;9.976;2023-01-30T06:57:40;4.80;99.90
14749;DHT22;7466;53.574;9.976;2023-01-30T07:00:09;4.80;99.90
14749;DHT22;7466;53.574;9.976;2023-01-30T07:02:37;4.80;99.90
14749;DHT22;7466;53.574;9.976;2023-01-30T07:05:06;4.80;99.90
14749;DHT22;7466;53.574;9.976;2023-01-30T07:07:34;4.80;99.90
14749;DHT22;7466;53.574;9.976;2023-01-30T07:10:01;4.70;99.90
14749;DHT22;7466;53.574;9.976;2023-01-30T07:12:28;4.70;99.90
14749;DHT22;7466;53.574;9.976;2023-01-30T07:14:55;4.70;99.90
14749;DHT22;7466;53.574;9.976;2023-01-30T07:17:22;4.70;99.90
14749;DHT22;7466;53.574;9.976;2023-01-30T07:19:51;4.90;99.90
14749;DHT22;7466;53.574;9.976;2023-01-30T07:22:18;4.90;99.90
14749;DHT22;7466;53.574;9.976;2023-01-30T07:24:44;4.90;99.90
14749;DHT22;7466;53.574;9.976;2023-01-30T07:27:12;4.90;99.90
14749;DHT22;7466;53.574;9.976;2023-01-30T07:29:39;4.90;99.90
14749;DHT22;7466;53.574;9.976;2023-01-30T07:32:07;4.90;99.90
14749;DHT22;7466;53.574;9.976;2023-01-30T07:34:41;4.90;99.90
14749;DHT22;7466;53.574;9.976;2023-01-30T07:37:16;4.90;99.90
14749;DHT22;7466;53.574;9.976;2023-01-30T07:39:43;4.90;99.90
14749;DHT22;7466;53.574;9.976;2023-01-30T07:42:09;4.90;99.90
14749;DHT22;7466;53.574;9.976;2023-01-30T07:44:47;5.00;99.90
14749;DHT22;7466;53.574;9.976;2023-01-30T07:47:13;4.90;99.90
14749;DHT22;7466;53.574;9.976;2023-01-30T07:49:40;4.90;99.90
14749;DHT22;7466;53.574;9.976;2023-01-30T07:52:07;5.00;99.90
14749;DHT22;7466;53.574;9.976;2023-01-30T07:54:36;5.10;99.90
14749;DHT22;7466;53.574;9.976;2023-01-30T07:57:03;5.20;99.90
14749;DHT22;7466;53.574;9.976;2023-01-30T07:59:29;5.20;99.90
14749;DHT22;7466;53.574;9.976;2023-01-30T08:01:59;5.20;99.90
14749;DHT22;7466;53.574;9.976;2023-01-30T08:04:26;5.30;99.90
14749;DHT22;7466;53.574;9.976;2023-01-30T08:06:55;5.40;99.90
14749;DHT22;7466;53.574;9.976;2023-01-30T08:09:21;5.40;99.90
14749;DHT22;7466;53.574;9.976;2023-01-30T08:12:00;5.40;99.90
14749;DHT22;7466;53.574;9.976;2023-01-30T08:14:27;5.40;99.90
14749;DHT22;7466;53.574;9.976;2023-01-30T08:16:55;5.40;99.90
14749;DHT22;7466;53.574;9.976;2023-01-30T08:19:22;5.50;99.90
14749;DHT22;7466;53.574;9.976;2023-01-30T08:21:49;5.50;99.90
14749;DHT22;7466;53.574;9.976;2023-01-30T08:24:16;5.40;99.90
14749;DHT22;7466;53.574;9.976;2023-01-30T08:26:43;5.40;99.90
14749;DHT22;7466;53.574;9.976;2023-01-30T08:29:11;5.40;99.90
14749;DHT22;7466;53.574;9.976;2023-01-30T08:31:39;5.40;99.90
14749;DHT22;7466;53.574;9.976;2023-01-30T08:34:07;5.50;99.90
14749;DHT22;7466;53.574;9.976;2023-01-30T08:36:33;5.70;99.90
14749;DHT22;7466;53.574;9.976;2023-01-30T08:39:00;5.70;99.90
14749;DHT22;7466;53.574;9.976;2023-01-30T08:41:28;5.70;99.90
14749;DHT22;7466;53.574;9.976;2023-01-30T08:43:54;5.70;99.90
14749;DHT22;7466;53.574;9.976;2023-01-30T08:46:22;5.80;99.90
14749;DHT22;7466;53.574;9.976;2023-01-30T08:48:51;5.70;99.90
14749;DHT22;7466;53.574;9.976;2023-01-30T08:51:18;5.70;99.90
14749;DHT22;7466;53.574;9.976;2023-01-30T08:53:45;5.70;99.90
14749;DHT22;7466;53.574;9.976;2023-01-30T08:56:12;5.70;99.90
14749;DHT22;7466;53.574;9.976;2023-01-30T08:58:39;5.70;99.90
14749;DHT22;7466;53.574;9.976;2023-01-30T09:01:08;5.80;99.90
14749;DHT22;7466;53.574;9.976;2023-01-30T09:03:36;5.80;99.90
14749;DHT22;7466;53.574;9.976;2023-01-30T09:06:05;5.80;99.90
14749;DHT22;7466;53.574;9.976;2023-01-30T09:08:36;6.00;99.90
14749;DHT22;7466;53.574;9.976;2023-01-30T09:11:09;6.10;99.90
14749;DHT22;7466;53.574;9.976;2023-01-30T09:13:39;6.10;99.90
14749;DHT22;7466;53.574;9.976;2023-01-30T09:16:08;6.00;99.90
14749;DHT22;7466;53.574;9.976;2023-01-30T09:18:39;6.00;99.90
14749;DHT22;7466;53.574;9.976;2023-01-30T09:21:06;6.00;99.90
14749;DHT22;7466;53.574;9.976;2023-01-30T09:23:35;6.10;99.90
14749;DHT22;7466;53.574;9.976;2023-01-30T09:26:03;6.00;99.90
14749;DHT22;7466;53.574;9.976;2023-01-30T09:28:30;6.00;99.90
14749;DHT22;7466;53.574;9.976;2023-01-30T09:30:58;6.00;99.90
14749;DHT22;7466;53.574;9.976;2023-01-30T09:33:25;6.00;99.90
14749;DHT22;7466;53.574;9.976;2023-01-30T09:35:53;5.90;99.90
14749;DHT22;7466;53.574;9.976;2023-01-30T09:38:22;5.90;99.90
14749;DHT22;7466;53.574;9.976;2023-01-30T09:40:58;6.00;99.90
14749;DHT22;7466;53.574;9.976;2023-01-30T09:43:46;6.00;99.90
14749;DHT22;7466;53.574;9.976;2023-01-30T09:46:28;6.10;99.90
14749;DHT22;7466;53.574;9.976;2023-01-30T09:49:06;6.20;99.90
14749;DHT22;7466;53.574;9.976;2023-01-30T09:51:44;6.30;99.90
14749;DHT22;7466;53.574;9.976;2023-01-30T09:54:17;6.50;99.90
14749;DHT22;7466;53.574;9.976;2023-01-30T09:56:54;6.60;99.90
14749;DHT22;7466;53.574;9.976;2023-01-30T09:59:24;6.60;99.90
14749;DHT22;7466;53.574;9.976;2023-01-30T10:01:59;6.60;99.90
14749;DHT22;7466;53.574;9.976;2023-01-30T10:04:33;6.50;99.90
14749;DHT22;7466;53.574;9.976;2023-01-30T10:07:09;6.40;99.90
14749;DHT22;7466;53.574;9.976;2023-01-30T10:09:44;6.20;99.90
14749;DHT22;7466;53.574;9.976;2023-01-30T10:12:25;6.00;99.90
14749;DHT22;7466;53.574;9.976;2023-01-30T10:15:24;5.90;99.90
14749;DHT22;7466;53.574;9.976;2023-01-30T10:18:10;5.80;99.90
14749;DHT22;7466;53.574;9.976;2023-01-30T10:20:46;5.70;99.90
14749;DHT22;7466;53.574;9.976;2023-01-30T10:23:31;5.60;99.90
14749;DHT22;7466;53.574;9.976;2023-01-30T10:26:09;5.40;99.90
14749;DHT22;7466;53.574;9.976;2023-01-30T10:28:42;5.00;99.90
14749;DHT22;7466;53.574;9.976;2023-01-30T10:31:14;4.80;99.90
14749;DHT22;7466;53.574;9.976;2023-01-30T10:33:47;4.50;99.90
14749;DHT22;7466;53.574;9.976;2023-01-30T10:36:26;4.50;99.90
14749;DHT22;7466;53.574;9.976;2023-01-30T10:38:58;4.50;99.90
14749;DHT22;7466;53.574;9.976;2023-01-30T10:41:30;4.50;99.90
14749;DHT22;7466;53.574;9.976;2023-01-30T10:44:01;4.70;99.90
14749;DHT22;7466;53.574;9.976;2023-01-30T10:49:48;5.30;99.90
14749;DHT22;7466;53.574;9.976;2023-01-30T10:52:37;5.60;99.90
14749;DHT22;7466;53.574;9.976;2023-01-30T10:55:22;5.60;99.90
14749;DHT22;7466;53.574;9.976;2023-01-30T10:58:00;5.60;99.90
14749;DHT22;7466;53.574;9.976;2023-01-30T11:00:39;5.50;99.90
14749;DHT22;7466;53.574;9.976;2023-01-30T11:03:19;5.30;99.90
14749;DHT22;7466;53.574;9.976;2023-01-30T11:05:48;5.20;99.90
14749;DHT22;7466;53.574;9.976;2023-01-30T11:08:21;5.10;99.90
14749;DHT22;7466;53.574;9.976;2023-01-30T11:10:50;5.00;99.90
14749;DHT22;7466;53.574;9.976;2023-01-30T11:13:18;4.90;99.90
14749;DHT22;7466;53.574;9.976;2023-01-30T11:15:48;4.80;99.90
14749;DHT22;7466;53.574;9.976;2023-01-30T11:18:15;4.70;99.90
14749;DHT22;7466;53.574;9.976;2023-01-30T11:20:45;4.70;99.90
14749;DHT22;7466;53.574;9.976;2023-01-30T11:23:31;4.70;99.90
14749;DHT22;7466;53.574;9.976;2023-01-30T11:26:13;4.60;99.90
14749;DHT22;7466;53.574;9.976;2023-01-30T11:28:59;4.60;99.90
14749;DHT22;7466;53.574;9.976;2023-01-30T11:31:51;4.60;99.90
14749;DHT22;7466;53.574;9.976;2023-01-30T11:34:21;4.60;99.90
14749;DHT22;7466;53.574;9.976;2023-01-30T11:36:50;4.70;99.90
14749;DHT22;7466;53.574;9.976;2023-01-30T11:39:20;4.70;99.90
14749;DHT22;7466;53.574;9.976;2023-01-30T11:41:59;4.60;99.90
14749;DHT22;7466;53.574;9.976;2023-01-30T11:44:31;4.70;99.90
14749;DHT22;7466;53.574;9.976;2023-01-30T11:47:00;4.70;99.90
14749;DHT22;7466;53.574;9.976;2023-01-30T11:49:32;4.80;99.90
14749;DHT22;7466;53.574;9.976;2023-01-30T11:52:01;5.00;99.90
14749;DHT22;7466;53.574;9.976;2023-01-30T11:54:32;5.00;99.90
14749;DHT22;7466;53.574;9.976;2023-01-30T11:57:05;5.30;99.90
14749;DHT22;7466;53.574;9.976;2023-01-30T11:59:40;5.70;99.90
14749;DHT22;7466;53.574;9.976;2023-01-30T12:02:14;6.00;99.90
14749;DHT22;7466;53.574;9.976;2023-01-30T12:04:43;6.10;99.90
14749;DHT22;7466;53.574;9.976;2023-01-30T12:07:17;6.30;99.90
14749;DHT22;7466;53.574;9.976;2023-01-30T12:09:46;6.50;99.90
14749;DHT22;7466;53.574;9.976;2023-01-30T12:12:28;6.40;99.90
14749;DHT22;7466;53.574;9.976;2023-01-30T12:15:16;6.40;99.90
14749;DHT22;7466;53.574;9.976;2023-01-30T12:20:40;6.30;99.90
14749;DHT22;7466;53.574;9.976;2023-01-30T12:23:11;6.20;99.90
14749;DHT22;7466;53.574;9.976;2023-01-30T12:25:43;6.00;99.90
14749;DHT22;7466;53.574;9.976;2023-01-30T12:28:17;5.80;99.90
14749;DHT22;7466;53.574;9.976;2023-01-30T12:30:49;5.70;99.90
14749;DHT22;7466;53.574;9.976;2023-01-30T12:33:17;5.50;99.90
14749;DHT22;7466;53.574;9.976;2023-01-30T12:35:55;5.40;99.90
14749;DHT22;7466;53.574;9.976;2023-01-30T12:38:36;5.50;99.90
14749;DHT22;7466;53.574;9.976;2023-01-30T12:41:18;5.70;99.90
14749;DHT22;7466;53.574;9.976;2023-01-30T12:44:01;5.60;99.90
14749;DHT22;7466;53.574;9.976;2023-01-30T12:46:41;5.60;99.90
14749;DHT22;7466;53.574;9.976;2023-01-30T12:49:34;5.80;99.90
14749;DHT22;7466;53.574;9.976;2023-01-30T12:52:15;5.80;99.90
14749;DHT22;7466;53.574;9.976;2023-01-30T12:54:52;5.80;99.90
14749;DHT22;7466;53.574;9.976;2023-01-30T12:57:30;5.80;99.90
14749;DHT22;7466;53.574;9.976;2023-01-30T13:00:14;5.70;99.90
14749;DHT22;7466;53.574;9.976;2023-01-30T13:03:01;5.70;99.90
14749;DHT22;7466;53.574;9.976;2023-01-30T13:05:40;5.70;99.90
14749;DHT22;7466;53.574;9.976;2023-01-30T13:08:27;5.80;99.90
14749;DHT22;7466;53.574;9.976;2023-01-30T13:11:05;6.00;99.90
14749;DHT22;7466;53.574;9.976;2023-01-30T13:13:40;6.20;99.90
14749;DHT22;7466;53.574;9.976;2023-01-30T13:16:19;6.30;99.90
14749;DHT22;7466;53.574;9.976;2023-01-30T13:18:56;6.30;99.90
14749;DHT22;7466;53.574;9.976;2023-01-30T13:21:29;6.30;99.90
14749;DHT22;7466;53.574;9.976;2023-01-30T13:24:11;6.40;99.90
14749;DHT22;7466;53.574;9.976;2023-01-30T13:26:41;6.40;99.90
14749;DHT22;7466;53.574;9.976;2023-01-30T13:29:13;6.50;99.90
14749;DHT22;7466;53.574;9.976;2023-01-30T13:31:48;6.50;99.90
14749;DHT22;7466;53.574;9.976;2023-01-30T13:34:22;6.50;99.90
14749;DHT22;7466;53.574;9.976;2023-01-30T13:37:12;6.60;99.90
14749;DHT22;7466;53.574;9.976;2023-01-30T13:39:44;6.50;99.90
14749;DHT22;7466;53.574;9.976;2023-01-30T13:42:23;6.40;99.90
14749;DHT22;7466;53.574;9.976;2023-01-30T13:44:52;6.30;99.90
14749;DHT22;7466;53.574;9.976;2023-01-30T13:47:38;6.20;99.90
14749;DHT22;7466;53.574;9.976;2023-01-30T13:53:12;6.20;99.90
14749;DHT22;7466;53.574;9.976;2023-01-30T13:55:48;6.30;99.90
14749;DHT22;7466;53.574;9.976;2023-01-30T13:58:31;6.50;99.90
14749;DHT22;7466;53.574;9.976;2023-01-30T14:01:02;6.50;99.90
14749;DHT22;7466;53.574;9.976;2023-01-30T14:03:32;6.50;99.90
14749;DHT22;7466;53.574;9.976;2023-01-30T14:06:08;6.50;99.90
14749;DHT22;7466;53.574;9.976;2023-01-30T14:08:39;6.50;99.90
14749;DHT22;7466;53.574;9.976;2023-01-30T14:11:24;6.50;99.90
14749;DHT22;7466;53.574;9.976;2023-01-30T14:13:57;6.50;99.90
14749;DHT22;7466;53.574;9.976;2023-01-30T14:16:39;6.50;99.90
14749;DHT22;7466;53.574;9.976;2023-01-30T14:19:34;6.50;99.90
14749;DHT22;7466;53.574;9.976;2023-01-30T14:22:18;6.50;99.90
14749;DHT22;7466;53.574;9.976;2023-01-30T14:31:47;6.40;99.90
14749;DHT22;7466;53.574;9.976;2023-01-30T14:34:49;6.40;99.90
14749;DHT22;7466;53.574;9.976;2023-01-30T14:38:08;6.50;99.90
14749;DHT22;7466;53.574;9.976;2023-01-30T14:40:40;6.50;99.90
14749;DHT22;7466;53.574;9.976;2023-01-30T14:43:47;6.50;99.90
14749;DHT22;7466;53.574;9.976;2023-01-30T14:46:42;6.60;99.90
14749;DHT22;7466;53.574;9.976;2023-01-30T14:52:25;6.70;99.90
14749;DHT22;7466;53.574;9.976;2023-01-30T14:54:57;6.70;99.90
14749;DHT22;7466;53.574;9.976;2023-01-30T14:57:25;6.70;99.90
14749;DHT22;7466;53.574;9.976;2023-01-30T15:00:01;6.70;99.90
14749;DHT22;7466;53.574;9.976;2023-01-30T15:02:31;6.80;99.90
14749;DHT22;7466;53.574;9.976;2023-01-30T15:05:05;6.70;99.90
14749;DHT22;7466;53.574;9.976;2023-01-30T15:07:38;6.80;99.90
14749;DHT22;7466;53.574;9.976;2023-01-30T15:10:19;6.80;99.90
14749;DHT22;7466;53.574;9.976;2023-01-30T15:13:12;6.80;99.90
14749;DHT22;7466;53.574;9.976;2023-01-30T15:15:49;6.80;99.90
14749;DHT22;7466;53.574;9.976;2023-01-30T15:18:36;6.80;99.90
14749;DHT22;7466;53.574;9.976;2023-01-30T15:21:25;6.70;99.90
14749;DHT22;7466;53.574;9.976;2023-01-30T15:27:17;6.70;99.90
14749;DHT22;7466;53.574;9.976;2023-01-30T15:29:58;6.70;99.90
14749;DHT22;7466;53.574;9.976;2023-01-30T15:32:29;6.60;99.90
14749;DHT22;7466;53.574;9.976;2023-01-30T15:34:58;6.70;99.90
14749;DHT22;7466;53.574;9.976;2023-01-30T15:37:30;6.70;99.90
14749;DHT22;7466;53.574;9.976;2023-01-30T15:40:17;6.60;99.90
14749;DHT22;7466;53.574;9.976;2023-01-30T15:42:47;6.50;99.90
14749;DHT22;7466;53.574;9.976;2023-01-30T15:45:21;6.50;99.90
14749;DHT22;7466;53.574;9.976;2023-01-30T15:48:10;6.50;99.90
14749;DHT22;7466;53.574;9.976;2023-01-30T15:50:50;6.50;99.90
14749;DHT22;7466;53.574;9.976;2023-01-30T15:53:24;6.50;99.90
14749;DHT22;7466;53.574;9.976;2023-01-30T15:55:58;6.50;99.90
14749;DHT22;7466;53.574;9.976;2023-01-30T15:58:28;6.40;99.90
14749;DHT22;7466;53.574;9.976;2023-01-30T16:00:57;6.40;99.90
14749;DHT22;7466;53.574;9.976;2023-01-30T16:03:40;6.30;99.90
14749;DHT22;7466;53.574;9.976;2023-01-30T16:06:20;6.30;99.90
14749;DHT22;7466;53.574;9.976;2023-01-30T16:08:55;6.30;99.90
14749;DHT22;7466;53.574;9.976;2023-01-30T16:11:38;6.30;99.90
14749;DHT22;7466;53.574;9.976;2023-01-30T16:14:10;6.30;99.90
14749;DHT22;7466;53.574;9.976;2023-01-30T16:16:46;6.30;99.90
14749;DHT22;7466;53.574;9.976;2023-01-30T16:19:20;6.30;99.90
14749;DHT22;7466;53.574;9.976;2023-01-30T16:21:51;6.30;99.90
14749;DHT22;7466;53.574;9.976;2023-01-30T16:24:24;6.20;99.90
14749;DHT22;7466;53.574;9.976;2023-01-30T16:26:53;6.20;99.90
14749;DHT22;7466;53.574;9.976;2023-01-30T16:29:25;6.20;99.90
14749;DHT22;7466;53.574;9.976;2023-01-30T16:31:57;6.20;99.90
14749;DHT22;7466;53.574;9.976;2023-01-30T16:34:27;6.10;99.90
14749;DHT22;7466;53.574;9.976;2023-01-30T16:36:56;6.10;99.90
14749;DHT22;7466;53.574;9.976;2023-01-30T16:39:28;6.10;99.90
14749;DHT22;7466;53.574;9.976;2023-01-30T16:42:16;6.10;99.90
14749;DHT22;7466;53.574;9.976;2023-01-30T16:44:45;6.20;99.90
14749;DHT22;7466;53.574;9.976;2023-01-30T16:47:22;6.10;99.90
14749;DHT22;7466;53.574;9.976;2023-01-30T16:49:49;6.00;99.90
14749;DHT22;7466;53.574;9.976;2023-01-30T16:52:20;5.90;99.90
14749;DHT22;7466;53.574;9.976;2023-01-30T16:54:50;5.90;99.90
14749;DHT22;7466;53.574;9.976;2023-01-30T16:57:26;5.90;99.90
14749;DHT22;7466;53.574;9.976;2023-01-30T16:59:58;5.80;99.90